Time;durP1;ratioP1;P1;durP2;ratioP2;P2;SDS_P1;SDS_P2;PMS_P1;PMS_P2;Temp;Humidity;BMP_temperature;BMP_pressure;BME280_temperature;BME280_humidity;BME280_pressure;Samples;Min_cycle;Max_cycle;Signal;HPM_P1;HPM_P2
2024/02/08 00:00:09;;;;;;;47.13;22.33;;;;;;;6.84;100.00;96883.72;5009704;28;20478;-79
2024/02/08 00:02:34;;;;;;;44.03;21.17;;;;;;;6.84;100.00;96893.50;5002658;28;20053;-79
2024/02/08 00:05:00;;;;;;;41.50;18.83;;;;;;;6.94;100.00;96890.22;4993299;28;20033;-80
2024/02/08 00:07:26;;;;;;;36.78;16.25;;;;;;;6.85;100.00;96893.44;5007329;28;20025;-78
2024/02/08 00:09:55;;;;;;;31.05;14.98;;;;;;;6.87;100.00;96894.19;4982237;28;20042;-78
2024/02/08 00:12:21;;;;;;;38.70;17.17;;;;;;;6.99;100.00;96889.94;5005221;28;20261;-78
2024/02/08 00:14:50;;;;;;;33.80;16.75;;;;;;;6.92;100.00;96881.47;4984164;28;20026;-78
2024/02/08 00:17:19;;;;;;;31.85;15.85;;;;;;;7.00;100.00;96889.88;4978209;28;20470;-78
2024/02/08 00:19:48;;;;;;;34.65;16.35;;;;;;;6.99;100.00;96897.94;4992112;28;20026;-78
2024/02/08 00:22:15;;;;;;;31.38;16.10;;;;;;;6.98;100.00;96889.09;4987663;28;20624;-79
2024/02/08 00:24:40;;;;;;;26.83;14.20;;;;;;;6.97;100.00;96890.06;4993887;28;20040;-78
2024/02/08 00:27:06;;;;;;;36.38;15.80;;;;;;;6.99;100.00;96893.47;4985411;28;20117;-79
2024/02/08 00:29:32;;;;;;;31.08;13.98;;;;;;;7.02;100.00;96892.44;4977341;28;20039;-79
2024/02/08 00:31:59;;;;;;;34.28;14.07;;;;;;;6.96;100.00;96879.50;4977269;28;20034;-78
2024/02/08 00:34:25;;;;;;;28.17;14.35;;;;;;;6.96;100.00;96898.09;5001441;28;20483;-79
2024/02/08 00:36:51;;;;;;;29.08;14.93;;;;;;;7.06;100.00;96889.53;5004992;28;20109;-79
2024/02/08 00:39:17;;;;;;;26.48;13.68;;;;;;;7.17;100.00;96890.69;4979093;28;20069;-79
2024/02/08 00:41:49;;;;;;;32.95;14.20;;;;;;;7.19;100.00;96886.13;4998606;28;20116;-78
2024/02/08 00:44:17;;;;;;;29.92;14.60;;;;;;;7.23;100.00;96879.69;4996931;28;20462;-78
2024/02/08 00:46:42;;;;;;;24.65;12.27;;;;;;;7.23;100.00;96879.69;5013349;28;20040;-78
2024/02/08 00:49:08;;;;;;;30.92;13.23;;;;;;;7.30;100.00;96886.34;4996551;28;20041;-80
2024/02/08 00:51:34;;;;;;;20.27;9.82;;;;;;;7.35;100.00;96879.78;4986099;28;20451;-78
2024/02/08 00:54:01;;;;;;;15.30;8.30;;;;;;;7.48;100.00;96866.59;4982912;28;20030;-79
2024/02/08 00:56:27;;;;;;;18.25;8.30;;;;;;;7.59;100.00;96872.16;5003384;28;20406;-79
2024/02/08 00:58:53;;;;;;;14.75;7.80;;;;;;;7.75;100.00;96878.25;4976841;28;20030;-79
2024/02/08 01:01:18;;;;;;;15.85;7.47;;;;;;;7.82;100.00;96860.06;4992867;28;20103;-77
2024/02/08 01:03:44;;;;;;;13.38;5.57;;;;;;;8.07;100.00;96869.09;4976919;28;20506;-78
2024/02/08 01:06:12;;;;;;;17.25;5.70;;;;;;;8.11;100.00;96836.00;4983356;28;20453;-79
2024/02/08 01:08:37;;;;;;;13.25;5.32;;;;;;;8.44;100.00;96861.47;4982534;28;20060;-78
2024/02/08 01:11:03;;;;;;;10.23;5.53;;;;;;;8.52;100.00;96848.53;4996109;28;20025;-79
2024/02/08 01:13:31;;;;;;;10.68;5.43;;;;;;;8.63;100.00;96851.34;5011855;28;20493;-79
2024/02/08 01:15:59;;;;;;;15.27;5.35;;;;;;;8.69;100.00;96850.94;4996617;28;20038;-77
2024/02/08 01:18:25;;;;;;;11.38;5.85;;;;;;;8.73;100.00;96846.25;4995706;28;20033;-79
2024/02/08 01:20:51;;;;;;;12.68;5.72;;;;;;;8.76;100.00;96846.06;4994810;28;20025;-79
2024/02/08 01:23:17;;;;;;;15.55;8.15;;;;;;;8.72;100.00;96845.41;4989194;28;20041;-78
2024/02/08 01:25:47;;;;;;;13.77;6.55;;;;;;;8.66;100.00;96849.31;4977924;28;20026;-79
2024/02/08 01:28:17;;;;;;;15.73;7.50;;;;;;;8.71;100.00;96854.34;4999811;28;20023;-78
2024/02/08 01:30:46;;;;;;;14.45;6.82;;;;;;;8.75;100.00;96847.00;4983011;28;20037;-79
2024/02/08 01:33:11;;;;;;;15.40;6.43;;;;;;;8.71;100.00;96849.00;4983563;28;20026;-79
2024/02/08 01:35:39;;;;;;;19.23;8.77;;;;;;;8.69;100.00;96856.25;4978284;28;20042;-79
2024/02/08 01:38:08;;;;;;;19.92;8.75;;;;;;;8.66;100.00;96853.78;4981379;28;20041;-78
2024/02/08 01:40:35;;;;;;;26.27;12.27;;;;;;;8.58;100.00;96845.47;5003600;28;20034;-78
2024/02/08 01:43:00;;;;;;;25.38;9.73;;;;;;;8.59;100.00;96850.66;4995744;28;20466;-78
2024/02/08 01:45:31;;;;;;;26.48;11.52;;;;;;;8.60;100.00;96856.88;4979830;28;20033;-78
2024/02/08 01:48:10;;;;;;;14.25;5.85;;;;;;;8.62;100.00;96850.47;4982336;28;20057;-79
2024/02/08 01:50:57;;;;;;;13.35;6.78;;;;;;;8.62;100.00;96833.63;5009792;28;20104;-79
2024/02/08 01:53:27;;;;;;;16.40;6.15;;;;;;;8.66;100.00;96837.81;4999526;28;20038;-79
2024/02/08 01:55:57;;;;;;;16.65;6.13;;;;;;;8.65;100.00;96830.75;4986933;28;20061;-79
2024/02/08 01:58:24;;;;;;;14.65;5.68;;;;;;;8.63;100.00;96832.66;4987626;28;20026;-79
2024/02/08 02:00:50;;;;;;;13.48;6.13;;;;;;;8.56;100.00;96834.88;4979279;28;20021;-79
2024/02/08 02:03:19;;;;;;;10.55;5.13;;;;;;;8.55;100.00;96841.16;4994851;28;20038;-79
2024/02/08 02:05:46;;;;;;;9.60;4.43;;;;;;;8.61;100.00;96829.25;5001527;28;20618;-79
2024/02/08 02:08:24;;;;;;;11.98;4.35;;;;;;;8.56;100.00;96818.03;4980777;28;20037;-79
2024/02/08 02:11:14;;;;;;;10.40;4.10;;;;;;;8.69;100.00;96819.78;4988114;28;20489;-79
2024/02/08 02:13:40;;;;;;;7.82;4.03;;;;;;;8.66;100.00;96820.00;5001073;28;20125;-79
2024/02/08 02:16:05;;;;;;;11.00;6.00;;;;;;;8.64;100.00;96826.41;4988711;28;20097;-79
2024/02/08 02:18:31;;;;;;;13.75;6.80;;;;;;;8.56;100.00;96816.22;4980157;28;20042;-80
2024/02/08 02:20:57;;;;;;;14.77;7.05;;;;;;;8.46;100.00;96827.59;5010975;28;20036;-79
2024/02/08 02:23:24;;;;;;;19.15;9.40;;;;;;;8.23;100.00;96834.38;4993510;28;20033;-79
2024/02/08 02:25:52;;;;;;;17.40;9.35;;;;;;;8.18;100.00;96845.31;5002733;28;20041;-79
2024/02/08 02:28:18;;;;;;;27.20;13.02;;;;;;;8.06;100.00;96848.75;4988430;28;20105;-79
2024/02/08 02:30:48;;;;;;;7.30;4.50;;;;;;;8.06;100.00;96840.75;4975125;28;20117;-78
2024/02/08 02:33:15;;;;;;;17.05;7.78;;;;;;;7.99;100.00;96834.13;4987959;28;20034;-80
2024/02/08 02:35:49;;;;;;;7.40;4.18;;;;;;;7.99;100.00;96823.47;5001580;28;20022;-80
2024/02/08 02:38:18;;;;;;;5.47;3.30;;;;;;;8.17;100.00;96826.78;4990850;28;20481;-80
2024/02/08 02:40:47;;;;;;;9.48;4.45;;;;;;;8.26;100.00;96836.84;5000352;28;20034;-79
2024/02/08 02:43:13;;;;;;;11.25;4.13;;;;;;;8.26;100.00;96838.63;4991482;28;20367;-78
2024/02/08 02:45:40;;;;;;;8.55;3.97;;;;;;;8.25;100.00;96831.59;4982386;28;20100;-78
2024/02/08 02:48:07;;;;;;;10.75;5.32;;;;;;;8.17;100.00;96830.28;5010767;28;20038;-78
2024/02/08 02:50:33;;;;;;;13.73;4.53;;;;;;;8.07;100.00;96823.84;4994727;28;20030;-78
2024/02/08 02:52:59;;;;;;;6.57;3.72;;;;;;;8.06;100.00;96824.78;5004068;28;20057;-79
2024/02/08 02:55:27;;;;;;;9.15;4.30;;;;;;;8.03;100.00;96835.63;4991559;28;20072;-79
2024/02/08 02:57:57;;;;;;;6.72;4.07;;;;;;;7.99;100.00;96834.13;4997266;28;20029;-79
2024/02/08 03:00:33;;;;;;;9.20;3.50;;;;;;;8.03;100.00;96832.09;4980344;28;20034;-79
2024/02/08 03:03:06;;;;;;;11.70;6.13;;;;;;;7.98;100.00;96832.41;4975741;28;20522;-79
2024/02/08 03:05:34;;;;;;;7.85;4.60;;;;;;;7.94;100.00;96825.56;5003305;28;20034;-78
2024/02/08 03:08:04;;;;;;;10.07;4.45;;;;;;;7.98;100.00;96836.88;4978947;28;20080;-78
2024/02/08 03:10:37;;;;;;;9.40;4.43;;;;;;;7.91;100.00;96819.56;4995052;28;20508;-79
2024/02/08 03:13:03;;;;;;;12.25;4.40;;;;;;;7.99;100.00;96823.47;4990466;28;20104;-79
2024/02/08 03:15:29;;;;;;;9.65;3.67;;;;;;;8.04;100.00;96818.72;4983467;28;20026;-80
2024/02/08 03:17:55;;;;;;;10.27;4.50;;;;;;;8.04;100.00;96832.03;4995248;28;20065;-79
2024/02/08 03:20:24;;;;;;;9.68;5.15;;;;;;;7.95;100.00;96837.94;4992252;28;20548;-79
2024/02/08 03:22:53;;;;;;;8.18;5.07;;;;;;;7.83;100.00;96824.53;4999439;28;20058;-78
2024/02/08 03:25:21;;;;;;;11.65;5.50;;;;;;;7.82;100.00;96826.34;4987377;28;20030;-79
2024/02/08 03:27:51;;;;;;;19.48;6.13;;;;;;;7.70;100.00;96827.09;5010153;28;20037;-79
2024/02/08 03:30:20;;;;;;;13.18;5.82;;;;;;;7.37;100.00;96802.56;4994384;28;20061;-78
2024/02/08 03:32:50;;;;;;;17.60;6.57;;;;;;;7.40;100.00;96835.16;4984196;28;20084;-78
2024/02/08 03:35:28;;;;;;;15.95;5.88;;;;;;;7.23;100.00;96831.81;4987519;28;20037;-79
2024/02/08 03:37:54;;;;;;;29.52;14.20;;;;;;;7.01;100.00;96806.50;4975264;28;20061;-78
2024/02/08 03:40:25;;;;;;;12.35;6.00;;;;;;;7.04;100.00;96816.94;4976715;28;20042;-79
2024/02/08 03:42:53;;;;;;;14.38;6.07;;;;;;;7.00;100.00;96826.06;4979857;28;20036;-79
2024/02/08 03:45:23;;;;;;;17.98;8.48;;;;;;;6.95;100.00;96820.16;4974443;28;20481;-79
2024/02/08 03:47:52;;;;;;;22.50;9.23;;;;;;;6.93;100.00;96821.19;4992965;28;20493;-79
2024/02/08 03:50:18;;;;;;;29.30;12.48;;;;;;;6.81;100.00;96814.81;4993324;28;20068;-79
2024/02/08 03:52:44;;;;;;;45.97;20.60;;;;;;;6.81;100.00;96817.47;4993142;28;20030;-78
2024/02/08 03:55:13;;;;;;;19.73;10.10;;;;;;;6.87;100.00;96809.13;4996124;28;20025;-77
2024/02/08 03:57:39;;;;;;;15.60;6.93;;;;;;;6.80;100.00;96798.97;5009993;28;20512;-77
2024/02/08 04:00:13;;;;;;;15.93;7.50;;;;;;;6.86;100.00;96794.13;4998133;28;20119;-78
2024/02/08 04:02:43;;;;;;;8.00;5.03;;;;;;;7.05;100.00;96813.34;4990225;28;20426;-78
2024/02/08 04:05:19;;;;;;;9.75;4.75;;;;;;;7.12;100.00;96794.38;4986272;28;20116;-77
2024/02/08 04:07:59;;;;;;;12.80;4.50;;;;;;;7.35;100.00;96809.81;5003370;28;20034;-77
2024/02/08 04:54:02;;;;;;;16.42;7.07;;;;;;;7.40;100.00;96823.66;4990760;28;20522;-78
2024/02/08 04:56:28;;;;;;;18.80;8.35;;;;;;;7.42;100.00;96813.78;4993209;28;20038;-78
2024/02/08 04:58:54;;;;;;;17.40;8.15;;;;;;;7.48;100.00;96826.69;4984970;28;20401;-78
2024/02/08 05:01:26;;;;;;;15.85;7.90;;;;;;;7.44;100.00;96831.38;4980248;28;20049;-79
2024/02/08 05:03:52;;;;;;;21.67;9.07;;;;;;;7.49;100.00;96833.75;4996700;28;20033;-78
2024/02/08 05:06:21;;;;;;;25.65;10.77;;;;;;;7.44;100.00;96827.88;4984587;28;20030;-81
2024/02/08 05:08:57;;;;;;;30.38;10.73;;;;;;;7.48;100.00;96842.66;5000272;28;20026;-77
2024/02/08 05:11:23;;;;;;;29.92;13.50;;;;;;;7.40;100.00;96840.50;5009038;28;20125;-77
2024/02/08 05:13:52;;;;;;;19.77;9.43;;;;;;;7.45;100.00;96843.72;4976415;28;20034;-78
2024/02/08 05:16:19;;;;;;;23.05;10.25;;;;;;;7.49;100.00;96844.38;4976556;28;20030;-75
2024/02/08 05:18:47;;;;;;;24.25;10.10;;;;;;;7.38;100.00;96842.38;5001235;28;20033;-79
2024/02/08 05:21:14;;;;;;;19.73;10.15;;;;;;;7.40;100.00;96842.28;4986872;28;20041;-78
2024/02/08 05:23:43;;;;;;;24.88;9.88;;;;;;;7.42;100.00;96832.41;4992561;28;20029;-82
2024/02/08 05:26:18;;;;;;;49.70;14.90;;;;;;;7.44;100.00;96836.69;4987731;28;20494;-78
2024/02/08 05:28:52;;;;;;;24.52;10.57;;;;;;;7.43;100.00;96826.13;4984284;28;20029;-80
2024/02/08 05:31:18;;;;;;;32.38;12.52;;;;;;;7.41;100.00;96830.72;4993154;28;20053;-78
2024/02/08 05:33:44;;;;;;;23.95;10.10;;;;;;;7.41;100.00;96830.72;4990592;28;20069;-79
2024/02/08 05:36:11;;;;;;;19.17;8.90;;;;;;;7.36;100.00;96830.13;4987849;28;20065;-81
2024/02/08 05:38:45;;;;;;;19.25;8.57;;;;;;;7.32;100.00;96825.94;4988389;28;20053;-79
2024/02/08 05:41:15;;;;;;;12.88;6.60;;;;;;;7.42;100.00;96833.25;4987097;28;20026;-78
2024/02/08 05:43:44;;;;;;;12.43;6.25;;;;;;;7.62;100.00;96838.22;5006157;28;20018;-78
2024/02/08 05:46:29;;;;;;;15.68;7.22;;;;;;;7.72;100.00;96832.34;4978902;28;20034;-78
2024/02/08 05:49:04;;;;;;;10.60;5.60;;;;;;;7.70;100.00;96820.91;5001145;28;20057;-79
2024/02/08 05:51:30;;;;;;;12.02;5.80;;;;;;;7.75;100.00;96829.50;4983406;28;20034;-78
2024/02/08 05:53:56;;;;;;;12.30;4.72;;;;;;;7.92;100.00;96823.94;4990935;28;20042;-78
2024/02/08 05:56:22;;;;;;;12.77;5.97;;;;;;;8.19;100.00;96839.03;4978950;28;20560;-78
2024/02/08 05:58:51;;;;;;;12.20;5.57;;;;;;;8.20;100.00;96815.91;4988059;28;20204;-78
2024/02/08 06:01:21;;;;;;;31.33;9.73;;;;;;;8.25;100.00;96831.59;4979058;28;20057;-78
2024/02/08 06:03:47;;;;;;;18.33;7.53;;;;;;;8.22;100.00;96835.31;4997274;28;20454;-79
2024/02/08 06:06:26;;;;;;;61.83;19.30;;;;;;;8.21;100.00;96838.09;5002829;28;20436;-80
2024/02/08 06:08:56;;;;;;;52.47;14.10;;;;;;;8.18;100.00;96839.97;4999785;28;20041;-79
2024/02/08 06:11:27;;;;;;;30.70;9.02;;;;;;;8.19;100.00;96838.16;4990507;28;20453;-78
2024/02/08 06:13:58;;;;;;;25.05;8.02;;;;;;;8.27;100.00;96845.69;5008966;28;20030;-79
2024/02/08 06:16:33;;;;;;;34.58;13.10;;;;;;;8.37;100.00;96865.47;5007783;28;20021;-80
2024/02/08 06:19:02;;;;;;;24.02;8.88;;;;;;;8.42;100.00;96863.38;4983329;28;20478;-79
2024/02/08 06:21:40;;;;;;;27.10;7.90;;;;;;;8.35;100.00;96851.41;4996785;28;20560;-80
2024/02/08 06:26:55;;;;;;;44.83;13.25;;;;;;;8.27;100.00;96857.22;5005027;28;20456;-78
2024/02/08 06:29:38;;;;;;;39.08;14.35;;;;;;;8.23;100.00;96873.47;5005453;28;20030;-79
2024/02/08 06:35:11;;;;;;;48.20;16.60;;;;;;;8.66;100.00;96867.97;4982241;28;20056;-79
2024/02/08 06:37:44;;;;;;;39.28;16.77;;;;;;;9.12;100.00;96870.28;4999544;28;20049;-79
2024/02/08 06:48:48;;;;;;;48.20;22.75;;;;;;;10.27;100.00;96855.03;5013667;28;20040;-78
2024/02/08 07:37:46;;;;;;;30.45;9.95;;;;;;;20.80;45.38;96786.28;4996591;28;20044;-80
2024/02/08 07:40:23;;;;;;;16.50;8.57;;;;;;;20.87;45.40;96778.28;4983098;28;20025;-80
2024/02/08 07:45:44;;;;;;;15.50;8.45;;;;;;;21.14;44.21;96758.78;5013851;28;20402;-79
2024/02/08 07:48:13;;;;;;;20.15;7.57;;;;;;;22.20;43.07;96777.84;5013119;28;20385;-80
2024/02/08 07:50:45;;;;;;;18.30;6.68;;;;;;;22.83;41.51;96763.66;4996355;28;20061;-79
2024/02/08 07:53:19;;;;;;;22.10;7.43;;;;;;;22.39;41.94;96756.34;4997459;28;20029;-81
2024/02/08 07:58:36;;;;;;;23.83;7.32;;;;;;;22.95;40.51;96749.34;4963761;28;20478;-79
2024/02/08 08:01:02;;;;;;;8.93;5.40;;;;;;;22.30;40.88;96759.34;4981924;28;20051;-79
2024/02/08 08:03:32;;;;;;;12.63;4.47;;;;;;;22.42;41.14;96755.97;5004917;28;20485;-79
2024/02/08 08:05:58;;;;;;;9.35;3.45;;;;;;;22.63;39.57;96758.78;4997061;28;20028;-80
2024/02/08 08:08:31;;;;;;;11.70;3.88;;;;;;;23.48;38.73;96752.69;4996407;28;20029;-80
2024/02/08 08:11:03;;;;;;;12.27;4.93;;;;;;;24.07;37.14;96747.75;4981190;28;20630;-79
2024/02/08 08:19:09;;;;;;;11.90;5.20;;;;;;;25.24;35.80;96747.63;5006932;28;20029;-79
2024/02/08 08:24:25;;;;;;;13.77;4.90;;;;;;;26.26;34.50;96737.25;5004310;28;20179;-81
2024/02/08 08:27:25;;;;;;;17.77;5.78;;;;;;;26.42;33.94;96735.13;4985117;28;20029;-80
2024/02/08 08:29:52;;;;;;;11.30;4.93;;;;;;;26.68;33.28;96727.66;4981032;28;20034;-81
2024/02/08 08:38:13;;;;;;;16.30;5.00;;;;;;;26.96;32.28;96719.16;5003771;28;20096;-79
2024/02/08 08:40:38;;;;;;;6.80;3.42;;;;;;;27.69;30.56;96716.84;5005143;28;20057;-79
2024/02/08 08:43:10;;;;;;;4.55;3.00;;;;;;;26.77;31.05;96700.81;4994642;28;20464;-79
2024/02/08 08:45:41;;;;;;;10.73;4.05;;;;;;;26.99;31.32;96710.47;4993809;28;20045;-79
2024/02/08 08:48:08;;;;;;;6.57;3.08;;;;;;;26.80;31.04;96716.88;4997310;28;20124;-78
2024/02/08 08:50:33;;;;;;;8.07;3.35;;;;;;;26.52;30.93;96713.59;5011947;28;20033;-79
2024/02/08 08:53:16;;;;;;;6.13;3.38;;;;;;;26.74;30.69;96713.06;5008923;28;20037;-79
2024/02/08 08:55:48;;;;;;;10.50;4.68;;;;;;;27.20;30.40;96712.91;5000780;28;20041;-79
2024/02/08 08:58:13;;;;;;;4.93;3.40;;;;;;;27.35;29.76;96702.47;5011122;28;20025;-79
2024/02/08 09:00:46;;;;;;;12.20;5.00;;;;;;;27.16;30.68;96721.81;4992752;28;20036;-79
2024/02/08 09:03:25;;;;;;;9.93;4.05;;;;;;;27.33;30.45;96701.00;5009964;28;20038;-80
2024/02/08 09:05:57;;;;;;;4.93;3.38;;;;;;;27.27;30.10;96712.88;4995242;28;20045;-79
2024/02/08 09:08:25;;;;;;;7.30;3.22;;;;;;;26.80;30.23;96716.88;4982852;28;20034;-80
2024/02/08 09:10:51;;;;;;;7.20;3.55;;;;;;;27.64;29.67;96713.94;4995637;28;20042;-80
2024/02/08 09:13:18;;;;;;;5.82;3.30;;;;;;;28.32;28.90;96707.47;5001224;28;20490;-80
2024/02/08 09:16:29;;;;;;;7.13;3.22;;;;;;;28.69;28.48;96713.88;4984643;28;20029;-80
2024/02/08 09:21:32;;;;;;;8.15;3.83;;;;;;;28.21;29.33;96710.94;5002497;28;20073;-80
2024/02/08 09:24:05;;;;;;;11.45;5.13;;;;;;;27.45;29.58;96713.84;5008697;28;20034;-80
2024/02/08 09:26:56;;;;;;;9.10;3.33;;;;;;;27.96;28.74;96708.16;5012537;28;20034;-80
2024/02/08 09:29:25;;;;;;;7.25;2.85;;;;;;;28.04;28.50;96707.06;5000080;28;20034;-80
2024/02/08 09:31:56;;;;;;;7.53;2.90;;;;;;;28.26;28.24;96697.38;4992511;28;20493;-80
2024/02/08 09:34:53;;;;;;;6.82;3.58;;;;;;;28.67;28.61;96699.50;4981749;28;20116;-80
2024/02/08 09:37:13;;;;;;;4.22;2.90;;;;;;;28.86;27.47;96687.41;5001106;28;20227;-80
2024/02/08 09:39:53;;;;;;;7.13;2.97;;;;;;;29.12;27.39;96680.72;4981125;28;20034;-80
2024/02/08 09:42:37;;;;;;;5.45;2.50;;;;;;;28.57;27.27;96682.66;4985093;28;20026;-80
2024/02/08 09:45:42;;;;;;;5.32;2.42;;;;;;;29.02;26.47;96680.44;5002795;28;20030;-80
2024/02/08 09:48:15;;;;;;;6.37;3.03;;;;;;;28.42;27.29;96668.44;5012510;28;20033;-80
2024/02/08 09:50:50;;;;;;;7.18;2.63;;;;;;;29.17;26.58;96669.00;4997920;28;20026;-80
2024/02/08 09:53:30;;;;;;;5.38;2.25;;;;;;;29.68;26.07;96668.50;4990253;28;20370;-78
2024/02/08 09:56:15;;;;;;;7.90;2.85;;;;;;;28.57;26.69;96657.03;4990607;28;20069;-79
2024/02/08 09:58:46;;;;;;;5.10;2.60;;;;;;;29.01;26.49;96662.22;4977574;28;20030;-80
2024/02/08 10:01:21;;;;;;;6.30;2.58;;;;;;;29.52;25.59;96665.34;4994101;28;20019;-80
2024/02/08 10:04:03;;;;;;;32.63;3.35;;;;;;;27.80;26.91;96677.66;4999284;28;20532;-80
2024/02/08 10:06:39;;;;;;;6.05;2.47;;;;;;;27.64;26.66;96658.97;4991869;28;20104;-79
2024/02/08 10:11:58;;;;;;;6.90;2.60;;;;;;;28.90;26.08;96643.72;5017466;28;20037;-79
2024/02/08 10:14:25;;;;;;;7.53;2.60;;;;;;;29.76;25.64;96638.66;4990598;28;20464;-80
2024/02/08 10:16:59;;;;;;;5.45;2.88;;;;;;;29.24;25.75;96650.50;4995501;28;20413;-80
2024/02/08 10:19:28;;;;;;;8.95;2.42;;;;;;;28.64;25.79;96628.34;4998182;28;20112;-79
2024/02/08 10:21:57;;;;;;;4.53;2.50;;;;;;;29.55;25.26;96647.47;4995326;28;20040;-80
2024/02/08 10:27:20;;;;;;;5.60;2.13;;;;;;;29.79;24.83;96631.81;5010471;28;20037;-80
2024/02/08 10:30:05;;;;;;;6.38;3.00;;;;;;;30.35;24.69;96629.34;4989309;28;20401;-80
2024/02/08 10:32:32;;;;;;;9.90;2.83;;;;;;;30.85;24.00;96628.78;5004704;28;20382;-80
2024/02/08 10:35:13;;;;;;;7.28;4.43;;;;;;;31.10;23.79;96621.06;4992418;28;20400;-79
2024/02/08 10:38:07;;;;;;;8.48;2.80;;;;;;;30.88;24.00;96620.00;5010639;28;20144;-80
2024/02/08 10:40:34;;;;;;;6.70;2.55;;;;;;;30.75;23.53;96614.75;4998533;28;20044;-80
2024/02/08 10:43:16;;;;;;;8.65;2.20;;;;;;;30.66;23.91;96617.06;5000564;28;20028;-80
2024/02/08 10:45:43;;;;;;;;;;;;;;;29.44;24.51;96610.53;4992815;28;20442;-80
2024/02/08 10:48:13;;;;;;;11.68;2.75;;;;;;;29.59;24.53;96619.19;4999839;28;20333;-80
2024/02/08 10:50:41;;;;;;;3.95;2.20;;;;;;;29.03;24.56;96599.50;4977938;28;20033;-80
2024/02/08 10:53:16;;;;;;;5.28;2.70;;;;;;;28.75;25.13;96613.00;4996735;28;20033;-79
2024/02/08 10:55:52;;;;;;;8.30;2.50;;;;;;;29.07;25.04;96595.19;5006578;28;20028;-80
2024/02/08 10:58:29;;;;;;;5.80;2.20;;;;;;;29.56;24.64;96600.38;5014911;28;20493;-79
2024/02/08 11:01:13;;;;;;;8.82;3.97;;;;;;;29.56;24.57;96599.56;4989516;28;20121;-79
2024/02/08 11:03:52;;;;;;;5.57;2.00;;;;;;;30.60;24.12;96591.28;4986783;28;20065;-80
2024/02/08 11:06:32;;;;;;;9.68;4.82;;;;;;;30.50;24.18;96585.53;4991588;28;20504;-79
2024/02/08 11:12:03;;;;;;;3.90;2.20;;;;;;;29.55;24.14;96576.66;4996112;28;20060;-82
2024/02/08 11:14:40;;;;;;;6.95;3.13;;;;;;;29.56;24.21;96575.56;5013439;28;20461;-79
2024/02/08 11:17:20;;;;;;;6.63;2.05;;;;;;;30.12;23.89;96576.91;4997574;28;20077;-80
2024/02/08 11:19:58;;;;;;;5.72;2.28;;;;;;;29.92;24.40;96571.78;5010127;28;20088;-81
2024/02/08 11:22:34;;;;;;;5.10;2.33;;;;;;;29.95;23.96;96565.78;5010155;28;20033;-79
2024/02/08 11:25:19;;;;;;;4.30;2.33;;;;;;;30.45;23.66;96566.13;4989209;28;20477;-79
2024/02/08 11:27:47;;;;;;;11.27;2.55;;;;;;;29.96;23.77;96552.84;4986498;28;20037;-81
2024/02/08 11:30:19;;;;;;;9.10;2.45;;;;;;;30.90;23.31;96549.63;5007427;28;20574;-79
2024/02/08 11:33:01;;;;;;;;;;;;;;;31.04;23.26;96542.72;5002310;28;20025;-79
2024/02/08 11:35:31;;;;;;;5.70;2.20;;;;;;;30.59;23.17;96544.56;4996208;28;20343;-79
2024/02/08 11:38:16;;;;;;;6.10;2.40;;;;;;;29.94;23.91;96533.75;4984900;28;20038;-79
2024/02/08 11:40:45;;;;;;;4.72;2.28;;;;;;;29.93;23.83;96534.81;4994262;28;20021;-80
2024/02/08 11:43:24;;;;;;;3.83;2.47;;;;;;;31.07;22.84;96535.88;4996830;28;20029;-80
2024/02/08 11:45:52;;;;;;;7.97;2.20;;;;;;;30.15;23.56;96532.28;4989966;28;20028;-80
2024/02/08 11:48:28;;;;;;;6.07;2.40;;;;;;;30.98;22.84;96529.06;4988626;28;20600;-80
2024/02/08 11:51:00;;;;;;;2.38;2.08;;;;;;;30.95;23.85;96527.63;5008838;28;20434;-80
2024/02/08 11:53:31;;;;;;;5.95;2.47;;;;;;;30.41;23.26;96529.03;5001196;28;20028;-80
2024/02/08 11:56:07;;;;;;;3.75;2.20;;;;;;;30.86;22.94;96529.09;4993687;28;20121;-80
2024/02/08 11:58:35;;;;;;;10.00;2.45;;;;;;;30.05;23.03;96518.28;4997494;28;20030;-79
2024/02/08 12:01:04;;;;;;;6.47;2.05;;;;;;;30.16;23.18;96522.94;4982505;28;20111;-79
2024/02/08 12:03:31;;;;;;;8.35;2.60;;;;;;;30.16;23.46;96516.56;4996035;28;20025;-79
2024/02/08 12:06:01;;;;;;;7.50;3.17;;;;;;;30.74;22.90;96508.13;5014875;28;20029;-80
2024/02/08 12:08:28;;;;;;;7.07;2.50;;;;;;;30.98;22.83;96518.84;4998064;28;20559;-80
2024/02/08 12:10:54;;;;;;;7.22;2.60;;;;;;;30.46;23.32;96526.38;4984663;28;20037;-79
2024/02/08 12:13:26;;;;;;;4.85;2.25;;;;;;;28.63;23.71;96521.25;5034958;28;20033;-80
2024/02/08 12:15:55;;;;;;;7.32;2.95;;;;;;;27.56;24.84;96513.59;4997466;28;20114;-79
2024/02/08 12:18:22;;;;;;;19.67;11.73;;;;;;;27.36;25.52;96530.25;4988019;28;20033;-79
2024/02/08 12:20:55;;;;;;;7.38;3.00;;;;;;;27.39;25.57;96516.91;4988028;28;20397;-79
2024/02/08 12:23:24;;;;;;;7.10;2.97;;;;;;;28.12;25.21;96508.75;4980705;28;20468;-79
2024/02/08 12:26:01;;;;;;;8.55;4.13;;;;;;;27.69;25.72;96514.31;4999968;28;20091;-80
2024/02/08 12:28:30;;;;;;;10.55;3.78;;;;;;;27.61;25.45;96502.78;4989391;28;20029;-79
2024/02/08 12:30:59;;;;;;;6.63;3.00;;;;;;;27.97;25.17;96506.38;5009032;28;20091;-80
2024/02/08 12:33:29;;;;;;;7.70;3.40;;;;;;;28.81;24.68;96500.03;4992744;28;20429;-80
2024/02/08 12:35:58;;;;;;;6.65;3.00;;;;;;;28.52;24.73;96493.44;4984504;28;20026;-79
2024/02/08 12:38:25;;;;;;;5.60;3.00;;;;;;;28.35;25.19;96508.91;5013090;28;20029;-80
2024/02/08 12:40:50;;;;;;;5.10;2.85;;;;;;;28.47;24.93;96503.44;4981312;28;20425;-79
2024/02/08 12:43:19;;;;;;;6.35;3.08;;;;;;;28.61;24.92;96501.38;4982647;28;20092;-80
2024/02/08 12:45:51;;;;;;;7.32;3.22;;;;;;;27.97;25.59;96500.03;4996543;28;20131;-80
2024/02/08 12:48:20;;;;;;;5.15;3.70;;;;;;;28.62;25.17;96494.78;4993941;28;20032;-79
2024/02/08 12:50:51;;;;;;;10.13;3.35;;;;;;;28.82;25.02;96481.59;5006578;28;20436;-79
2024/02/08 12:53:18;;;;;;;6.80;3.17;;;;;;;29.81;24.49;96489.03;5015924;28;20439;-79
2024/02/08 12:55:47;;;;;;;8.10;3.55;;;;;;;30.03;24.05;96496.44;5010767;28;20037;-79
2024/02/08 12:58:16;;;;;;;6.93;2.90;;;;;;;29.87;24.03;96480.63;5006242;28;20025;-79
2024/02/08 13:00:45;;;;;;;5.55;3.20;;;;;;;29.29;24.42;96483.38;5015075;28;20029;-80
2024/02/08 13:03:11;;;;;;;6.05;3.08;;;;;;;29.48;24.24;96471.16;4984295;28;20046;-79
2024/02/08 13:05:38;;;;;;;5.90;3.13;;;;;;;29.32;24.58;96473.78;4992633;28;20088;-80
2024/02/08 13:08:06;;;;;;;10.82;4.45;;;;;;;29.62;24.15;96468.19;4999466;28;20063;-79
2024/02/08 13:10:32;;;;;;;7.85;3.75;;;;;;;29.86;24.07;96465.19;4996127;28;20033;-80
2024/02/08 13:13:04;;;;;;;5.07;2.63;;;;;;;29.92;24.15;96455.09;4991795;28;20025;-79
2024/02/08 13:15:33;;;;;;;7.40;3.10;;;;;;;29.75;23.84;96466.00;4988178;28;20120;-79
2024/02/08 13:18:00;;;;;;;6.70;2.97;;;;;;;28.94;24.65;96475.06;4984337;28;20042;-80
2024/02/08 13:20:27;;;;;;;4.40;2.95;;;;;;;28.62;24.74;96456.25;4987887;28;20064;-79
2024/02/08 13:22:54;;;;;;;5.00;3.25;;;;;;;28.52;24.84;96471.41;5010147;28;20029;-79
2024/02/08 13:25:21;;;;;;;5.30;2.60;;;;;;;28.38;25.06;96464.44;4990088;28;20029;-79
2024/02/08 13:27:50;;;;;;;7.13;3.13;;;;;;;28.92;25.04;96477.19;4990713;28;20026;-80
2024/02/08 13:30:16;;;;;;;4.63;2.83;;;;;;;28.75;24.98;96475.34;5003935;28;20108;-79
2024/02/08 13:32:43;;;;;;;4.38;2.50;;;;;;;28.33;24.97;96477.19;4982586;28;20044;-79
2024/02/08 13:35:09;;;;;;;8.52;3.45;;;;;;;27.90;25.94;96467.13;5009710;28;20508;-79
2024/02/08 13:37:37;;;;;;;8.15;3.10;;;;;;;28.38;25.97;96480.09;4985884;28;20025;-79
2024/02/08 13:40:04;;;;;;;6.05;3.22;;;;;;;28.98;24.91;96459.72;4990077;28;20022;-79
2024/02/08 13:42:29;;;;;;;6.22;3.50;;;;;;;28.67;25.37;96467.44;5002165;28;20022;-80
2024/02/08 13:44:57;;;;;;;8.80;3.72;;;;;;;28.08;25.75;96474.56;4993561;28;20035;-78
2024/02/08 13:47:27;;;;;;;4.90;2.92;;;;;;;28.19;25.52;96465.53;4993245;28;20036;-79
2024/02/08 13:49:54;;;;;;;9.93;3.83;;;;;;;28.27;25.74;96467.13;5006898;28;20025;-80
2024/02/08 13:52:27;;;;;;;6.15;3.38;;;;;;;28.05;25.92;96463.19;4990849;28;20027;-78
2024/02/08 13:54:53;;;;;;;8.73;3.63;;;;;;;28.59;25.67;96464.97;4989554;28;20026;-80
2024/02/08 13:57:22;;;;;;;6.45;3.28;;;;;;;28.27;25.63;96456.94;4995174;28;20523;-80
2024/02/08 13:59:51;;;;;;;10.20;3.75;;;;;;;28.18;25.87;96469.34;5015129;28;20459;-79